createdAt,value
2023-03-11T00:01:40.994Z,0.45
2023-03-11T00:04:43.187Z,0.63
2023-03-11T00:07:44.971Z,0.60
2023-03-11T00:10:48.551Z,0.60
2023-03-11T00:13:50.270Z,0.70
2023-03-11T00:16:51.914Z,0.60
2023-03-11T00:19:53.578Z,0.60
2023-03-11T00:22:56.542Z,0.55
2023-03-11T00:25:59.945Z,0.80
2023-03-11T00:29:01.672Z,0.70
2023-03-11T00:32:03.284Z,0.70
2023-03-11T00:35:06.271Z,0.50
2023-03-11T00:38:11.797Z,0.70
2023-03-11T00:41:13.724Z,0.70
2023-03-11T00:44:15.345Z,0.60
2023-03-11T00:47:17.261Z,0.60
2023-03-11T00:50:21.689Z,0.70
2023-03-11T00:53:23.337Z,0.70
2023-03-11T00:56:24.932Z,0.70
2023-03-11T00:59:26.601Z,0.70
2023-03-11T01:02:28.321Z,0.63
2023-03-11T01:05:32.742Z,0.75
2023-03-11T01:08:34.871Z,0.90
2023-03-11T01:11:36.548Z,0.82
2023-03-11T01:14:39.441Z,1.03
2023-03-11T01:17:41.078Z,0.90
2023-03-11T01:20:42.835Z,0.70
2023-03-11T01:23:44.570Z,0.70
2023-03-11T01:26:46.297Z,0.90
2023-03-11T01:29:47.926Z,0.80
2023-03-11T01:32:50.179Z,0.80
2023-03-11T01:35:51.970Z,0.90
2023-03-11T01:38:53.659Z,0.85
2023-03-11T01:41:56.253Z,1.00
2023-03-11T01:44:57.884Z,0.90
2023-03-11T01:47:59.578Z,0.90
2023-03-11T01:51:01.886Z,0.80
2023-03-11T01:54:13.316Z,0.70
2023-03-11T01:57:15.399Z,0.98
2023-03-11T02:00:17.341Z,1.00
2023-03-11T02:03:33.453Z,0.88
2023-03-11T02:06:35.400Z,0.80
2023-03-11T02:09:37.583Z,0.70
2023-03-11T02:12:39.674Z,0.82
2023-03-11T02:15:41.331Z,0.90
2023-03-11T02:18:43.986Z,0.90
2023-03-11T02:21:45.851Z,0.93
2023-03-11T02:25:09.613Z,0.95
2023-03-11T02:28:13.432Z,0.95
2023-03-11T02:31:16.306Z,1.00
2023-03-11T02:34:27.281Z,0.90
2023-03-11T02:37:28.904Z,0.80
2023-03-11T02:40:33.624Z,0.90
2023-03-11T02:43:42.567Z,1.05
2023-03-11T02:46:45.098Z,0.90
2023-03-11T02:49:46.937Z,1.00
2023-03-11T02:52:49.985Z,1.00
2023-03-11T02:55:51.735Z,0.90
2023-03-11T02:58:53.445Z,1.00
2023-03-11T03:01:55.161Z,1.00
2023-03-11T03:04:57.231Z,0.80
2023-03-11T03:07:58.847Z,0.80
2023-03-11T03:11:01.165Z,1.10
2023-03-11T03:14:02.930Z,1.00
2023-03-11T03:17:04.669Z,1.10
2023-03-11T03:20:11.308Z,1.00
2023-03-11T03:23:12.955Z,0.88
2023-03-11T03:26:14.815Z,0.93
2023-03-11T03:29:16.423Z,0.85
2023-03-11T03:32:18.121Z,0.90
2023-03-11T03:35:19.945Z,0.90
2023-03-11T03:38:21.699Z,0.73
2023-03-11T03:41:23.499Z,0.60
2023-03-11T03:44:25.135Z,0.63
2023-03-11T03:47:26.747Z,0.60
2023-03-11T03:50:28.364Z,0.80
2023-03-11T03:53:30.102Z,0.70
2023-03-11T03:56:31.758Z,0.70
2023-03-11T03:59:33.390Z,0.80
2023-03-11T04:02:35.191Z,0.80
2023-03-11T04:05:36.847Z,0.77
2023-03-11T04:08:38.671Z,0.77
2023-03-11T04:11:40.362Z,0.80
2023-03-11T04:14:42.468Z,0.60
2023-03-11T04:17:44.227Z,0.80
2023-03-11T04:20:46.548Z,0.80
2023-03-11T04:23:48.290Z,0.80
2023-03-11T04:26:49.915Z,0.75
2023-03-11T04:29:51.566Z,0.80
2023-03-11T04:32:53.170Z,0.90
2023-03-11T04:35:54.904Z,1.00
2023-03-11T04:38:58.028Z,0.70
2023-03-11T04:42:01.147Z,0.82
2023-03-11T04:45:04.195Z,0.90
2023-03-11T04:48:05.956Z,1.00
2023-03-11T04:51:08.097Z,1.58
2023-03-11T04:54:09.948Z,1.30
2023-03-11T04:57:11.563Z,1.27
2023-03-11T05:00:15.808Z,1.40
2023-03-11T05:03:17.497Z,1.40
2023-03-11T05:06:19.310Z,1.33
2023-03-11T05:09:21.061Z,1.13
2023-03-11T05:12:22.665Z,1.45
2023-03-11T05:15:24.503Z,1.20
2023-03-11T05:18:26.210Z,1.10
2023-03-11T05:21:27.832Z,0.95
2023-03-11T05:24:29.675Z,1.10
2023-03-11T05:27:31.492Z,1.50
2023-03-11T05:30:33.446Z,1.00
2023-03-11T05:33:35.926Z,0.90
2023-03-11T05:36:37.510Z,0.90
2023-03-11T05:39:39.435Z,0.95
2023-03-11T05:42:41.893Z,1.08
2023-03-11T05:45:43.544Z,0.80
2023-03-11T05:48:45.089Z,0.97
2023-03-11T05:51:46.732Z,1.15
2023-03-11T05:54:52.086Z,1.00
2023-03-11T05:57:53.863Z,1.02
2023-03-11T06:00:55.796Z,0.80
2023-03-11T06:03:57.600Z,0.90
2023-03-11T06:06:59.434Z,0.85
2023-03-11T06:10:01.177Z,0.90
2023-03-11T06:13:02.854Z,0.90
2023-03-11T06:16:05.239Z,0.90
2023-03-11T06:19:07.110Z,0.90
2023-03-11T06:22:08.777Z,0.90
2023-03-11T06:25:10.702Z,0.85
2023-03-11T06:28:12.448Z,1.10
2023-03-11T06:31:20.141Z,1.08
2023-03-11T06:34:23.761Z,1.07
2023-03-11T06:37:25.949Z,1.10
2023-03-11T06:40:27.570Z,0.93
2023-03-11T06:43:30.045Z,1.00
2023-03-11T06:46:31.767Z,1.25
2023-03-11T06:49:33.534Z,0.90
2023-03-11T06:52:35.406Z,1.00
2023-03-11T06:55:37.005Z,0.98
2023-03-11T06:58:40.867Z,1.05
2023-03-11T07:01:42.518Z,0.93
2023-03-11T07:04:44.143Z,1.00
2023-03-11T07:07:45.752Z,0.90
2023-03-11T07:10:48.389Z,1.17
2023-03-11T07:13:50.802Z,0.90
2023-03-11T07:16:52.471Z,0.90
2023-03-11T07:19:54.465Z,0.90
2023-03-11T07:22:59.043Z,0.90
2023-03-11T07:26:00.831Z,1.30
2023-03-11T07:29:02.734Z,0.85
2023-03-11T07:32:04.803Z,1.67
2023-03-11T07:35:07.095Z,1.10
2023-03-11T07:38:08.838Z,0.90
2023-03-11T07:41:12.561Z,0.70
2023-03-11T07:44:15.748Z,1.00
2023-03-11T07:47:17.471Z,0.80
2023-03-11T07:50:22.180Z,1.03
2023-03-11T07:53:24.652Z,0.88
2023-03-11T07:56:32.153Z,0.88
2023-03-11T07:59:33.754Z,1.00
2023-03-11T08:02:35.439Z,1.00
2023-03-11T08:05:37.237Z,1.00
2023-03-11T08:08:38.904Z,1.00
2023-03-11T08:11:41.028Z,0.90
2023-03-11T08:14:43.875Z,1.30
2023-03-11T08:17:45.650Z,0.88
2023-03-11T08:20:47.284Z,0.80
2023-03-11T08:23:49.485Z,0.73
2023-03-11T08:26:51.105Z,0.82
2023-03-11T08:29:52.815Z,0.73
2023-03-11T08:32:54.504Z,0.90
2023-03-11T08:35:56.193Z,0.80
2023-03-11T08:38:58.525Z,0.77
2023-03-11T08:42:00.948Z,1.10
2023-03-11T08:45:02.878Z,1.20
2023-03-11T08:48:04.647Z,1.10
2023-03-11T08:51:11.282Z,0.90
2023-03-11T08:54:13.039Z,0.90
2023-03-11T08:57:14.694Z,0.80
2023-03-11T09:00:16.850Z,0.90
2023-03-11T09:03:18.488Z,0.75
2023-03-11T09:06:21.028Z,1.03
2023-03-11T09:09:22.626Z,0.90
2023-03-11T09:12:24.251Z,0.80
2023-03-11T09:15:25.928Z,1.08
2023-03-11T09:18:29.325Z,0.90
2023-03-11T09:21:30.924Z,0.90
2023-03-11T09:24:34.981Z,0.80
2023-03-11T09:27:36.688Z,0.95
2023-03-11T09:30:38.576Z,0.75
2023-03-11T09:33:42.229Z,0.82
2023-03-11T09:36:44.747Z,0.90
2023-03-11T09:39:46.705Z,0.90
2023-03-11T09:43:01.468Z,0.82
2023-03-11T09:46:15.056Z,0.75
2023-03-11T09:49:31.917Z,1.02
2023-03-11T09:52:40.236Z,0.87
2023-03-11T09:55:51.527Z,1.00
2023-03-11T09:59:00.583Z,0.80
2023-03-11T10:02:04.107Z,0.57
2023-03-11T10:05:26.753Z,0.75
2023-03-11T10:08:34.348Z,0.73
2023-03-11T10:12:00.756Z,0.68
2023-03-11T10:15:17.109Z,0.90
2023-03-11T10:18:24.876Z,0.70
2023-03-11T10:21:38.266Z,0.88
2023-03-11T10:25:05.230Z,0.70
2023-03-11T10:28:12.785Z,0.80
2023-03-11T10:31:26.597Z,0.80
2023-03-11T10:34:43.764Z,0.90
2023-03-11T10:37:56.992Z,0.80
2023-03-11T10:41:05.118Z,0.70
2023-03-11T10:44:13.594Z,0.90
2023-03-11T10:47:24.337Z,0.95
2023-03-11T10:50:26.039Z,0.75
2023-03-11T10:53:28.525Z,1.00
2023-03-11T10:56:36.710Z,1.00
2023-03-11T10:59:50.600Z,1.08
2023-03-11T11:03:01.806Z,1.10
2023-03-11T11:06:18.715Z,0.90
2023-03-11T11:09:25.084Z,0.90
2023-03-11T11:12:28.002Z,0.90
2023-03-11T11:15:36.721Z,1.00
2023-03-11T11:18:50.601Z,0.90
2023-03-11T11:21:52.465Z,0.80
2023-03-11T11:24:55.872Z,0.95
2023-03-11T11:28:01.703Z,1.00
2023-03-11T11:31:06.248Z,0.98
2023-03-11T11:34:32.733Z,1.02
2023-03-11T11:37:37.494Z,1.10
2023-03-11T11:40:39.155Z,1.15
2023-03-11T11:43:50.072Z,1.20
2023-03-11T11:46:57.509Z,1.05
2023-03-11T11:50:02.482Z,0.90
2023-03-11T11:53:39.117Z,0.90
2023-03-11T11:56:42.107Z,0.90
2023-03-11T11:59:44.803Z,1.03
2023-03-11T12:02:56.937Z,1.20
2023-03-11T12:06:02.000Z,0.90
2023-03-11T12:09:14.727Z,1.10
2023-03-11T12:12:42.779Z,0.88
2023-03-11T12:15:56.111Z,1.20
2023-03-11T12:19:12.763Z,1.10
2023-03-11T12:22:23.549Z,1.30
2023-03-11T12:25:36.203Z,0.90
2023-03-11T12:29:22.489Z,1.15
2023-03-11T12:32:44.278Z,1.00
2023-03-11T12:35:55.900Z,0.90
2023-03-11T12:38:59.951Z,1.08
2023-03-11T12:42:10.913Z,1.17
2023-03-11T12:45:48.536Z,0.77
2023-03-11T12:49:11.072Z,0.93
2023-03-11T12:52:13.317Z,1.10
2023-03-11T12:55:15.069Z,1.30
2023-03-11T12:58:32.029Z,1.08
2023-03-11T13:01:51.968Z,1.30
2023-03-11T13:04:56.503Z,1.27
2023-03-11T13:08:10.178Z,0.95
2023-03-11T13:11:37.088Z,1.45
2023-03-11T13:14:38.793Z,1.30
2023-03-11T13:17:41.894Z,1.35
2023-03-11T13:20:49.329Z,1.10
2023-03-11T13:23:51.028Z,1.30
2023-03-11T13:27:12.837Z,1.20
2023-03-11T13:30:34.194Z,1.30
2023-03-11T13:33:55.467Z,1.30
2023-03-11T13:37:18.921Z,1.50
2023-03-11T13:40:29.535Z,1.20
2023-03-11T13:43:31.234Z,1.35
2023-03-11T13:46:38.824Z,1.50
2023-03-11T13:49:45.890Z,1.48
2023-03-11T13:52:53.796Z,1.23
2023-03-11T13:55:55.670Z,1.30
2023-03-11T13:59:17.954Z,1.10
2023-03-11T14:02:23.030Z,1.30
2023-03-11T14:05:36.175Z,1.60
2023-03-11T14:08:39.262Z,1.20
2023-03-11T14:11:47.638Z,1.80
2023-03-11T14:14:58.986Z,1.70
2023-03-11T14:18:34.056Z,1.30
2023-03-11T14:21:35.847Z,1.77
2023-03-11T14:24:39.621Z,1.60
2023-03-11T14:27:51.671Z,1.38
2023-03-11T14:30:58.935Z,1.58
2023-03-11T14:34:12.608Z,1.30
2023-03-11T14:37:37.732Z,1.58
2023-03-11T14:40:39.514Z,1.50
2023-03-11T14:43:45.993Z,1.48
2023-03-11T14:46:49.773Z,1.33
2023-03-11T14:49:53.637Z,1.90
2023-03-11T14:53:16.612Z,2.35
2023-03-11T14:56:23.337Z,1.53
2023-03-11T14:59:32.376Z,1.42
2023-03-11T15:02:43.515Z,1.67
2023-03-11T15:05:55.157Z,1.63
2023-03-11T15:09:06.319Z,1.80
2023-03-11T15:12:28.155Z,1.43
2023-03-11T15:15:29.845Z,2.50
2023-03-11T15:18:37.272Z,2.00
2023-03-11T15:21:46.301Z,1.73
2023-03-11T15:24:53.768Z,1.60
2023-03-11T15:27:56.042Z,1.80
2023-03-11T15:31:26.541Z,1.70
2023-03-11T15:34:33.433Z,1.20
2023-03-11T15:37:35.277Z,1.55
2023-03-11T15:40:45.349Z,1.83
2023-03-11T15:43:48.705Z,1.63
2023-03-11T15:46:50.433Z,1.50
2023-03-11T15:49:52.133Z,1.55
2023-03-11T15:52:56.689Z,2.00
2023-03-11T15:56:07.498Z,1.60
2023-03-11T15:59:17.812Z,1.60
2023-03-11T16:02:23.812Z,1.65
2023-03-11T16:05:25.970Z,1.83
2023-03-11T16:08:27.700Z,1.60
2023-03-11T16:11:32.738Z,1.52
2023-03-11T16:14:34.393Z,1.70
2023-03-11T16:17:49.010Z,1.80
2023-03-11T16:20:54.039Z,1.60
2023-03-11T16:23:55.687Z,1.52
2023-03-11T16:26:57.449Z,1.70
2023-03-11T16:29:59.192Z,1.20
2023-03-11T16:33:03.945Z,1.50
2023-03-11T16:36:06.486Z,1.52
2023-03-11T16:39:08.124Z,1.50
2023-03-11T16:42:09.896Z,1.17
2023-03-11T16:45:13.025Z,1.50
2023-03-11T16:48:14.693Z,1.88
2023-03-11T16:51:16.280Z,1.88
2023-03-11T16:54:17.900Z,1.70
2023-03-11T16:57:19.666Z,1.88
2023-03-11T17:00:21.436Z,2.07
2023-03-11T17:03:23.445Z,1.83
2023-03-11T17:06:25.753Z,1.67
2023-03-11T17:09:27.377Z,1.65
2023-03-11T17:12:29.099Z,2.05
2023-03-11T17:15:32.072Z,2.13
2023-03-11T17:18:33.742Z,2.00
2023-03-11T17:21:35.423Z,2.30
2023-03-11T17:24:37.348Z,2.05
2023-03-11T17:27:38.956Z,2.28
2023-03-11T17:30:44.772Z,2.20
2023-03-11T17:33:46.551Z,2.40
2023-03-11T17:36:48.141Z,2.42
2023-03-11T17:39:49.910Z,1.95
2023-03-11T17:42:51.533Z,2.35
2023-03-11T17:45:53.924Z,2.20
2023-03-11T17:48:55.597Z,2.13
2023-03-11T17:51:57.313Z,2.63
2023-03-11T17:54:59.034Z,2.53
2023-03-11T17:58:01.117Z,1.92
2023-03-11T18:01:08.415Z,1.80
2023-03-11T18:04:10.242Z,1.95
2023-03-11T18:07:15.052Z,1.73
2023-03-11T18:10:16.915Z,2.28
2023-03-11T18:13:19.694Z,1.90
2023-03-11T18:16:23.675Z,2.10
2023-03-11T18:19:25.373Z,2.05
2023-03-11T18:22:27.653Z,1.90
2023-03-11T18:25:29.312Z,2.20
2023-03-11T18:28:31.479Z,1.92
2023-03-11T18:31:33.337Z,2.20
2023-03-11T18:34:35.458Z,1.95
2023-03-11T18:37:38.241Z,2.33
2023-03-11T18:40:40.057Z,2.47
2023-03-11T18:43:41.962Z,2.20
2023-03-11T18:46:43.619Z,2.60
2023-03-11T18:49:46.428Z,2.10
2023-03-11T18:52:51.985Z,2.08
2023-03-11T18:55:59.836Z,1.90
2023-03-11T18:59:01.506Z,2.33
2023-03-11T19:02:03.115Z,2.40
2023-03-11T19:05:06.627Z,2.47
2023-03-11T19:08:08.483Z,2.63
2023-03-11T19:11:12.422Z,2.60
2023-03-11T19:14:14.158Z,2.75
2023-03-11T19:17:18.239Z,3.00
2023-03-11T19:20:19.970Z,1.80
2023-03-11T19:23:21.592Z,2.30
2023-03-11T19:26:41.396Z,2.03
2023-03-11T19:29:45.193Z,2.80
2023-03-11T19:32:47.823Z,3.03
2023-03-11T19:36:01.096Z,2.60
2023-03-11T19:39:03.315Z,3.05
2023-03-11T19:42:04.983Z,2.50
2023-03-11T19:45:07.287Z,1.88
2023-03-11T19:48:09.541Z,2.13
2023-03-11T19:51:12.241Z,2.13
2023-03-11T19:54:16.207Z,2.80
2023-03-11T19:57:18.001Z,2.83
2023-03-11T20:00:20.120Z,2.90
2023-03-11T20:03:23.137Z,2.73
2023-03-11T20:06:24.804Z,2.80
2023-03-11T20:09:26.483Z,2.75
2023-03-11T20:12:28.224Z,2.60
2023-03-11T20:15:30.685Z,2.70
2023-03-11T20:18:32.327Z,2.43
2023-03-11T20:21:39.001Z,2.60
2023-03-11T20:24:40.741Z,2.35
2023-03-11T20:27:42.970Z,2.50
2023-03-11T20:30:44.577Z,2.90
2023-03-11T20:33:47.583Z,3.03
2023-03-11T20:36:50.918Z,2.92
2023-03-11T20:39:52.709Z,3.08
2023-03-11T20:42:54.339Z,2.85
2023-03-11T20:45:57.817Z,3.70
2023-03-11T20:49:00.834Z,3.30
2023-03-11T20:52:02.998Z,2.97
2023-03-11T20:55:07.497Z,3.45
2023-03-11T20:58:09.602Z,2.90
2023-03-11T21:01:16.444Z,3.60
2023-03-11T21:04:18.433Z,2.70
2023-03-11T21:07:20.029Z,3.78
2023-03-11T21:10:21.813Z,3.53
2023-03-11T21:13:23.508Z,3.80
2023-03-11T21:16:26.957Z,3.38
2023-03-11T21:19:28.783Z,3.23
2023-03-11T21:22:30.545Z,3.60
2023-03-11T21:25:32.178Z,2.65
2023-03-11T21:28:34.623Z,2.88
2023-03-11T21:31:36.390Z,3.45
2023-03-11T21:34:39.963Z,3.00
2023-03-11T21:37:41.784Z,2.90
2023-03-11T21:40:43.607Z,3.13
2023-03-11T21:43:46.461Z,2.38
2023-03-11T21:46:48.328Z,2.55
2023-03-11T21:49:50.182Z,2.97
2023-03-11T21:52:51.919Z,2.58
2023-03-11T21:55:54.335Z,3.30
2023-03-11T21:58:56.201Z,2.60
2023-03-11T22:02:02.639Z,2.53
2023-03-11T22:05:05.101Z,2.73
2023-03-11T22:08:06.917Z,3.03
2023-03-11T22:11:10.814Z,2.42
2023-03-11T22:14:12.479Z,3.00
2023-03-11T22:17:14.350Z,2.67
2023-03-11T22:20:16.380Z,2.87
2023-03-11T22:23:18.166Z,2.70
2023-03-11T22:26:19.950Z,2.10
2023-03-11T22:29:21.677Z,2.70
2023-03-11T22:32:23.355Z,2.45
2023-03-11T22:35:24.971Z,2.10
2023-03-11T22:38:26.765Z,2.80
2023-03-11T22:41:28.667Z,2.85
2023-03-11T22:44:30.329Z,3.10
2023-03-11T22:47:32.598Z,2.97
2023-03-11T22:50:34.304Z,3.03
2023-03-11T22:53:35.949Z,3.13
2023-03-11T22:56:37.582Z,2.75
2023-03-11T22:59:39.234Z,3.22
2023-03-11T23:02:40.996Z,2.83
2023-03-11T23:05:43.338Z,2.83
2023-03-11T23:08:46.052Z,3.40
2023-03-11T23:11:49.054Z,3.42
2023-03-11T23:14:50.792Z,2.42
2023-03-11T23:17:52.582Z,3.55
2023-03-11T23:20:54.192Z,2.87
2023-03-11T23:23:56.455Z,2.65
2023-03-11T23:26:58.102Z,3.03
2023-03-11T23:29:59.751Z,2.42
2023-03-11T23:33:03.059Z,3.03
2023-03-11T23:36:08.071Z,3.10
2023-03-11T23:39:09.727Z,2.70
2023-03-11T23:42:24.542Z,3.47
2023-03-11T23:45:27.370Z,3.00
2023-03-11T23:48:29.007Z,3.30
2023-03-11T23:51:30.732Z,3.20
2023-03-11T23:54:32.384Z,3.00
2023-03-11T23:57:37.782Z,3.05
